sensor_id;sensor_type;location;lat;lon;timestamp;P1;durP1;ratioP1;P2;durP2;ratioP2
44476;SDS011;30180;44.788;10.366;2022-07-06T00:01:36;4.97;;;2.63;;
44476;SDS011;30180;44.788;10.366;2022-07-06T00:04:06;4.40;;;2.83;;
44476;SDS011;30180;44.788;10.366;2022-07-06T00:06:34;3.75;;;2.53;;
44476;SDS011;30180;44.788;10.366;2022-07-06T00:09:03;3.03;;;2.25;;
44476;SDS011;30180;44.788;10.366;2022-07-06T00:11:32;5.53;;;2.90;;
44476;SDS011;30180;44.788;10.366;2022-07-06T00:14:01;3.72;;;2.75;;
44476;SDS011;30180;44.788;10.366;2022-07-06T00:16:29;4.15;;;2.65;;
44476;SDS011;30180;44.788;10.366;2022-07-06T00:18:59;4.57;;;2.90;;
44476;SDS011;30180;44.788;10.366;2022-07-06T00:21:27;4.50;;;2.40;;
44476;SDS011;30180;44.788;10.366;2022-07-06T00:23:56;3.80;;;2.70;;
44476;SDS011;30180;44.788;10.366;2022-07-06T00:26:24;5.20;;;2.70;;
44476;SDS011;30180;44.788;10.366;2022-07-06T00:28:53;4.15;;;2.42;;
44476;SDS011;30180;44.788;10.366;2022-07-06T00:31:21;4.38;;;2.92;;
44476;SDS011;30180;44.788;10.366;2022-07-06T00:33:50;3.38;;;2.55;;
44476;SDS011;30180;44.788;10.366;2022-07-06T00:36:19;3.17;;;2.13;;
44476;SDS011;30180;44.788;10.366;2022-07-06T00:38:48;2.83;;;2.30;;
44476;SDS011;30180;44.788;10.366;2022-07-06T00:41:16;5.18;;;2.53;;
44476;SDS011;30180;44.788;10.366;2022-07-06T00:43:48;4.03;;;2.45;;
44476;SDS011;30180;44.788;10.366;2022-07-06T00:46:18;3.72;;;2.60;;
44476;SDS011;30180;44.788;10.366;2022-07-06T00:48:46;3.63;;;2.58;;
44476;SDS011;30180;44.788;10.366;2022-07-06T00:51:15;3.53;;;2.63;;
44476;SDS011;30180;44.788;10.366;2022-07-06T00:53:44;3.75;;;2.63;;
44476;SDS011;30180;44.788;10.366;2022-07-06T00:58:42;4.50;;;2.72;;
44476;SDS011;30180;44.788;10.366;2022-07-06T01:01:11;3.67;;;2.30;;
44476;SDS011;30180;44.788;10.366;2022-07-06T01:03:40;4.72;;;2.65;;
44476;SDS011;30180;44.788;10.366;2022-07-06T01:06:08;3.78;;;2.35;;
44476;SDS011;30180;44.788;10.366;2022-07-06T01:08:38;3.95;;;2.55;;
44476;SDS011;30180;44.788;10.366;2022-07-06T01:11:07;4.03;;;2.67;;
44476;SDS011;30180;44.788;10.366;2022-07-06T01:13:36;4.13;;;2.90;;
44476;SDS011;30180;44.788;10.366;2022-07-06T01:16:04;3.53;;;2.65;;
44476;SDS011;30180;44.788;10.366;2022-07-06T01:18:33;3.63;;;2.55;;
44476;SDS011;30180;44.788;10.366;2022-07-06T01:21:07;3.97;;;2.80;;
44476;SDS011;30180;44.788;10.366;2022-07-06T01:23:42;3.83;;;2.60;;
44476;SDS011;30180;44.788;10.366;2022-07-06T01:26:12;3.65;;;2.38;;
44476;SDS011;30180;44.788;10.366;2022-07-06T01:28:41;4.45;;;2.58;;
44476;SDS011;30180;44.788;10.366;2022-07-06T01:31:15;3.75;;;2.53;;
44476;SDS011;30180;44.788;10.366;2022-07-06T01:33:47;3.20;;;2.42;;
44476;SDS011;30180;44.788;10.366;2022-07-06T01:36:17;4.13;;;2.40;;
44476;SDS011;30180;44.788;10.366;2022-07-06T01:38:46;5.72;;;2.47;;
44476;SDS011;30180;44.788;10.366;2022-07-06T01:41:15;3.92;;;2.50;;
44476;SDS011;30180;44.788;10.366;2022-07-06T01:43:44;3.13;;;2.50;;
44476;SDS011;30180;44.788;10.366;2022-07-06T01:46:12;3.38;;;2.53;;
44476;SDS011;30180;44.788;10.366;2022-07-06T01:48:41;3.47;;;2.80;;
44476;SDS011;30180;44.788;10.366;2022-07-06T01:51:10;3.70;;;2.47;;
44476;SDS011;30180;44.788;10.366;2022-07-06T01:53:40;4.30;;;2.35;;
44476;SDS011;30180;44.788;10.366;2022-07-06T01:56:09;3.20;;;2.50;;
44476;SDS011;30180;44.788;10.366;2022-07-06T01:58:38;5.57;;;2.40;;
44476;SDS011;30180;44.788;10.366;2022-07-06T02:01:07;2.70;;;2.35;;
44476;SDS011;30180;44.788;10.366;2022-07-06T02:03:36;5.20;;;2.25;;
44476;SDS011;30180;44.788;10.366;2022-07-06T02:06:05;3.63;;;2.67;;
44476;SDS011;30180;44.788;10.366;2022-07-06T02:08:34;3.67;;;2.60;;
44476;SDS011;30180;44.788;10.366;2022-07-06T02:11:05;4.00;;;2.40;;
44476;SDS011;30180;44.788;10.366;2022-07-06T02:13:34;3.40;;;2.22;;
44476;SDS011;30180;44.788;10.366;2022-07-06T02:16:03;3.47;;;2.40;;
44476;SDS011;30180;44.788;10.366;2022-07-06T02:18:32;3.70;;;2.80;;
44476;SDS011;30180;44.788;10.366;2022-07-06T02:21:00;3.17;;;2.40;;
44476;SDS011;30180;44.788;10.366;2022-07-06T02:23:28;3.17;;;2.33;;
44476;SDS011;30180;44.788;10.366;2022-07-06T02:25:56;4.32;;;2.33;;
44476;SDS011;30180;44.788;10.366;2022-07-06T02:28:26;3.17;;;2.30;;
44476;SDS011;30180;44.788;10.366;2022-07-06T02:30:54;3.53;;;2.17;;
44476;SDS011;30180;44.788;10.366;2022-07-06T02:33:23;3.75;;;2.58;;
44476;SDS011;30180;44.788;10.366;2022-07-06T02:35:51;2.90;;;2.30;;
44476;SDS011;30180;44.788;10.366;2022-07-06T02:38:19;3.30;;;2.30;;
44476;SDS011;30180;44.788;10.366;2022-07-06T02:40:48;3.15;;;2.20;;
44476;SDS011;30180;44.788;10.366;2022-07-06T02:43:16;4.28;;;2.60;;
44476;SDS011;30180;44.788;10.366;2022-07-06T02:45:46;4.00;;;2.40;;
44476;SDS011;30180;44.788;10.366;2022-07-06T02:48:14;3.03;;;2.13;;
44476;SDS011;30180;44.788;10.366;2022-07-06T02:50:44;4.72;;;2.40;;
44476;SDS011;30180;44.788;10.366;2022-07-06T02:53:12;3.22;;;2.28;;
44476;SDS011;30180;44.788;10.366;2022-07-06T02:55:40;3.35;;;2.40;;
44476;SDS011;30180;44.788;10.366;2022-07-06T02:58:08;3.47;;;2.28;;
44476;SDS011;30180;44.788;10.366;2022-07-06T03:00:36;3.80;;;2.20;;
44476;SDS011;30180;44.788;10.366;2022-07-06T03:03:06;3.13;;;2.22;;
44476;SDS011;30180;44.788;10.366;2022-07-06T03:05:35;3.53;;;2.42;;
44476;SDS011;30180;44.788;10.366;2022-07-06T03:08:04;2.90;;;2.10;;
44476;SDS011;30180;44.788;10.366;2022-07-06T03:10:32;2.63;;;2.13;;
44476;SDS011;30180;44.788;10.366;2022-07-06T03:13:00;3.13;;;2.60;;
44476;SDS011;30180;44.788;10.366;2022-07-06T03:15:29;2.78;;;2.33;;
44476;SDS011;30180;44.788;10.366;2022-07-06T03:17:57;2.72;;;1.88;;
44476;SDS011;30180;44.788;10.366;2022-07-06T03:20:27;3.72;;;2.20;;
44476;SDS011;30180;44.788;10.366;2022-07-06T03:22:55;2.35;;;2.08;;
44476;SDS011;30180;44.788;10.366;2022-07-06T03:25:23;3.45;;;2.30;;
44476;SDS011;30180;44.788;10.366;2022-07-06T03:27:52;4.75;;;2.35;;
44476;SDS011;30180;44.788;10.366;2022-07-06T03:30:20;3.53;;;2.30;;
44476;SDS011;30180;44.788;10.366;2022-07-06T03:32:48;3.20;;;2.28;;
44476;SDS011;30180;44.788;10.366;2022-07-06T03:35:16;4.38;;;2.22;;
44476;SDS011;30180;44.788;10.366;2022-07-06T03:37:46;3.22;;;2.20;;
44476;SDS011;30180;44.788;10.366;2022-07-06T03:40:14;2.95;;;2.15;;
44476;SDS011;30180;44.788;10.366;2022-07-06T03:42:42;3.28;;;2.30;;
44476;SDS011;30180;44.788;10.366;2022-07-06T03:45:11;2.90;;;2.17;;
44476;SDS011;30180;44.788;10.366;2022-07-06T03:47:39;3.10;;;2.30;;
44476;SDS011;30180;44.788;10.366;2022-07-06T03:50:07;3.70;;;2.13;;
44476;SDS011;30180;44.788;10.366;2022-07-06T03:52:36;3.15;;;2.20;;
44476;SDS011;30180;44.788;10.366;2022-07-06T03:55:08;2.35;;;2.00;;
44476;SDS011;30180;44.788;10.366;2022-07-06T03:57:38;2.58;;;2.10;;
44476;SDS011;30180;44.788;10.366;2022-07-06T04:00:07;3.90;;;2.20;;
44476;SDS011;30180;44.788;10.366;2022-07-06T04:02:36;3.00;;;2.20;;
44476;SDS011;30180;44.788;10.366;2022-07-06T04:05:05;3.05;;;2.10;;
44476;SDS011;30180;44.788;10.366;2022-07-06T04:07:33;3.60;;;2.30;;
44476;SDS011;30180;44.788;10.366;2022-07-06T04:10:02;3.60;;;2.42;;
44476;SDS011;30180;44.788;10.366;2022-07-06T04:12:32;4.47;;;1.90;;
44476;SDS011;30180;44.788;10.366;2022-07-06T04:15:07;2.70;;;2.00;;
44476;SDS011;30180;44.788;10.366;2022-07-06T04:17:36;3.15;;;1.92;;
44476;SDS011;30180;44.788;10.366;2022-07-06T04:20:20;2.35;;;2.03;;
44476;SDS011;30180;44.788;10.366;2022-07-06T04:22:49;2.65;;;1.90;;
44476;SDS011;30180;44.788;10.366;2022-07-06T04:25:17;2.88;;;1.90;;
44476;SDS011;30180;44.788;10.366;2022-07-06T04:27:47;2.92;;;1.92;;
44476;SDS011;30180;44.788;10.366;2022-07-06T04:30:16;3.67;;;2.15;;
44476;SDS011;30180;44.788;10.366;2022-07-06T04:32:44;2.45;;;2.03;;
44476;SDS011;30180;44.788;10.366;2022-07-06T04:35:12;3.15;;;2.00;;
44476;SDS011;30180;44.788;10.366;2022-07-06T04:37:40;4.68;;;2.10;;
44476;SDS011;30180;44.788;10.366;2022-07-06T04:40:09;3.95;;;2.10;;
44476;SDS011;30180;44.788;10.366;2022-07-06T04:42:44;3.20;;;2.00;;
44476;SDS011;30180;44.788;10.366;2022-07-06T04:45:13;3.03;;;2.22;;
44476;SDS011;30180;44.788;10.366;2022-07-06T04:47:41;4.38;;;2.20;;
44476;SDS011;30180;44.788;10.366;2022-07-06T04:50:10;6.22;;;2.63;;
44476;SDS011;30180;44.788;10.366;2022-07-06T04:52:39;3.85;;;2.50;;
44476;SDS011;30180;44.788;10.366;2022-07-06T04:55:07;6.07;;;2.53;;
44476;SDS011;30180;44.788;10.366;2022-07-06T04:57:36;7.30;;;3.17;;
44476;SDS011;30180;44.788;10.366;2022-07-06T05:00:05;9.38;;;3.30;;
44476;SDS011;30180;44.788;10.366;2022-07-06T05:02:35;7.53;;;3.03;;
44476;SDS011;30180;44.788;10.366;2022-07-06T05:05:04;10.33;;;4.00;;
44476;SDS011;30180;44.788;10.366;2022-07-06T05:07:33;9.23;;;4.00;;
44476;SDS011;30180;44.788;10.366;2022-07-06T05:10:06;12.07;;;3.90;;
44476;SDS011;30180;44.788;10.366;2022-07-06T05:12:35;6.80;;;2.57;;
44476;SDS011;30180;44.788;10.366;2022-07-06T05:15:04;4.50;;;2.00;;
44476;SDS011;30180;44.788;10.366;2022-07-06T05:17:33;4.18;;;1.77;;
44476;SDS011;30180;44.788;10.366;2022-07-06T05:20:04;3.50;;;1.87;;
44476;SDS011;30180;44.788;10.366;2022-07-06T05:22:33;5.38;;;1.90;;
44476;SDS011;30180;44.788;10.366;2022-07-06T05:25:10;3.40;;;1.40;;
44476;SDS011;30180;44.788;10.366;2022-07-06T05:27:39;5.20;;;1.60;;
44476;SDS011;30180;44.788;10.366;2022-07-06T05:30:07;4.10;;;1.67;;
44476;SDS011;30180;44.788;10.366;2022-07-06T05:32:38;5.40;;;1.30;;
44476;SDS011;30180;44.788;10.366;2022-07-06T05:35:06;2.33;;;1.40;;
44476;SDS011;30180;44.788;10.366;2022-07-06T05:37:55;3.67;;;1.45;;
44476;SDS011;30180;44.788;10.366;2022-07-06T05:40:23;2.42;;;1.40;;
44476;SDS011;30180;44.788;10.366;2022-07-06T05:42:52;4.15;;;1.55;;
44476;SDS011;30180;44.788;10.366;2022-07-06T05:45:20;2.90;;;1.40;;
44476;SDS011;30180;44.788;10.366;2022-07-06T05:47:51;1.95;;;1.02;;
44476;SDS011;30180;44.788;10.366;2022-07-06T05:50:51;1.88;;;1.38;;
44476;SDS011;30180;44.788;10.366;2022-07-06T05:53:20;3.10;;;1.30;;
44476;SDS011;30180;44.788;10.366;2022-07-06T05:55:48;2.88;;;1.20;;
44476;SDS011;30180;44.788;10.366;2022-07-06T05:58:19;3.40;;;1.05;;
44476;SDS011;30180;44.788;10.366;2022-07-06T06:00:48;4.82;;;1.30;;
44476;SDS011;30180;44.788;10.366;2022-07-06T06:03:17;2.10;;;1.10;;
44476;SDS011;30180;44.788;10.366;2022-07-06T06:05:46;3.47;;;1.20;;
44476;SDS011;30180;44.788;10.366;2022-07-06T06:08:14;2.85;;;1.25;;
44476;SDS011;30180;44.788;10.366;2022-07-06T06:10:42;3.10;;;1.15;;
44476;SDS011;30180;44.788;10.366;2022-07-06T06:13:11;3.35;;;1.48;;
44476;SDS011;30180;44.788;10.366;2022-07-06T06:15:39;3.75;;;1.27;;
44476;SDS011;30180;44.788;10.366;2022-07-06T06:18:07;2.92;;;0.90;;
44476;SDS011;30180;44.788;10.366;2022-07-06T06:20:37;1.90;;;0.80;;
44476;SDS011;30180;44.788;10.366;2022-07-06T06:23:05;3.63;;;1.23;;
44476;SDS011;30180;44.788;10.366;2022-07-06T06:25:35;2.17;;;1.00;;
44476;SDS011;30180;44.788;10.366;2022-07-06T06:28:04;1.88;;;0.90;;
44476;SDS011;30180;44.788;10.366;2022-07-06T06:30:34;2.10;;;1.08;;
44476;SDS011;30180;44.788;10.366;2022-07-06T06:33:06;1.52;;;1.05;;
44476;SDS011;30180;44.788;10.366;2022-07-06T06:35:37;1.73;;;1.10;;
44476;SDS011;30180;44.788;10.366;2022-07-06T06:38:09;2.40;;;1.10;;
44476;SDS011;30180;44.788;10.366;2022-07-06T06:40:37;2.85;;;0.98;;
44476;SDS011;30180;44.788;10.366;2022-07-06T06:43:05;3.13;;;1.15;;
44476;SDS011;30180;44.788;10.366;2022-07-06T06:45:34;2.53;;;1.10;;
44476;SDS011;30180;44.788;10.366;2022-07-06T06:48:02;2.17;;;0.88;;
44476;SDS011;30180;44.788;10.366;2022-07-06T06:50:31;3.10;;;1.13;;
44476;SDS011;30180;44.788;10.366;2022-07-06T06:53:01;3.17;;;1.25;;
44476;SDS011;30180;44.788;10.366;2022-07-06T06:55:30;1.30;;;0.93;;
44476;SDS011;30180;44.788;10.366;2022-07-06T06:57:58;2.28;;;0.98;;
44476;SDS011;30180;44.788;10.366;2022-07-06T07:00:26;1.13;;;0.90;;
44476;SDS011;30180;44.788;10.366;2022-07-06T07:02:55;1.70;;;0.90;;
44476;SDS011;30180;44.788;10.366;2022-07-06T07:05:23;2.90;;;1.00;;
44476;SDS011;30180;44.788;10.366;2022-07-06T07:07:52;5.75;;;1.02;;
44476;SDS011;30180;44.788;10.366;2022-07-06T07:10:31;2.80;;;0.90;;
44476;SDS011;30180;44.788;10.366;2022-07-06T07:13:00;2.95;;;1.00;;
44476;SDS011;30180;44.788;10.366;2022-07-06T07:15:29;3.35;;;1.15;;
44476;SDS011;30180;44.788;10.366;2022-07-06T07:17:57;2.30;;;1.00;;
44476;SDS011;30180;44.788;10.366;2022-07-06T07:20:26;1.80;;;0.82;;
44476;SDS011;30180;44.788;10.366;2022-07-06T07:22:56;2.03;;;0.90;;
44476;SDS011;30180;44.788;10.366;2022-07-06T07:25:25;2.08;;;0.98;;
44476;SDS011;30180;44.788;10.366;2022-07-06T07:27:55;0.85;;;0.75;;
44476;SDS011;30180;44.788;10.366;2022-07-06T07:30:23;1.93;;;1.00;;
44476;SDS011;30180;44.788;10.366;2022-07-06T07:32:52;3.08;;;1.20;;
44476;SDS011;30180;44.788;10.366;2022-07-06T07:35:22;3.05;;;1.20;;
44476;SDS011;30180;44.788;10.366;2022-07-06T07:37:50;2.70;;;0.98;;
44476;SDS011;30180;44.788;10.366;2022-07-06T07:40:19;1.73;;;1.00;;
44476;SDS011;30180;44.788;10.366;2022-07-06T07:42:48;3.65;;;0.95;;
44476;SDS011;30180;44.788;10.366;2022-07-06T07:45:17;3.42;;;1.00;;
44476;SDS011;30180;44.788;10.366;2022-07-06T07:47:45;2.28;;;0.98;;
44476;SDS011;30180;44.788;10.366;2022-07-06T07:50:14;2.58;;;1.20;;
44476;SDS011;30180;44.788;10.366;2022-07-06T07:52:42;2.63;;;0.98;;
44476;SDS011;30180;44.788;10.366;2022-07-06T07:55:10;2.55;;;1.00;;
44476;SDS011;30180;44.788;10.366;2022-07-06T07:57:59;5.13;;;1.08;;
44476;SDS011;30180;44.788;10.366;2022-07-06T08:00:28;6.25;;;1.00;;
44476;SDS011;30180;44.788;10.366;2022-07-06T08:02:57;2.30;;;1.00;;
44476;SDS011;30180;44.788;10.366;2022-07-06T08:05:25;2.65;;;1.08;;
44476;SDS011;30180;44.788;10.366;2022-07-06T08:07:53;5.70;;;1.23;;
44476;SDS011;30180;44.788;10.366;2022-07-06T08:10:21;3.08;;;0.90;;
44476;SDS011;30180;44.788;10.366;2022-07-06T08:12:50;3.03;;;1.02;;
44476;SDS011;30180;44.788;10.366;2022-07-06T08:15:18;2.25;;;0.98;;
44476;SDS011;30180;44.788;10.366;2022-07-06T08:17:48;3.65;;;1.13;;
44476;SDS011;30180;44.788;10.366;2022-07-06T08:20:16;1.93;;;1.10;;
44476;SDS011;30180;44.788;10.366;2022-07-06T08:22:45;3.42;;;1.13;;
44476;SDS011;30180;44.788;10.366;2022-07-06T08:25:13;2.88;;;1.33;;
44476;SDS011;30180;44.788;10.366;2022-07-06T08:27:41;2.60;;;1.23;;
44476;SDS011;30180;44.788;10.366;2022-07-06T08:30:10;2.72;;;1.10;;
44476;SDS011;30180;44.788;10.366;2022-07-06T08:32:39;2.67;;;1.33;;
44476;SDS011;30180;44.788;10.366;2022-07-06T08:35:29;3.67;;;1.05;;
44476;SDS011;30180;44.788;10.366;2022-07-06T08:37:57;5.40;;;1.45;;
44476;SDS011;30180;44.788;10.366;2022-07-06T08:40:26;3.40;;;1.33;;
44476;SDS011;30180;44.788;10.366;2022-07-06T08:42:58;2.08;;;1.23;;
44476;SDS011;30180;44.788;10.366;2022-07-06T08:45:27;3.40;;;1.58;;
44476;SDS011;30180;44.788;10.366;2022-07-06T08:47:57;2.97;;;1.40;;
44476;SDS011;30180;44.788;10.366;2022-07-06T08:50:32;2.78;;;1.40;;
44476;SDS011;30180;44.788;10.366;2022-07-06T08:53:01;4.88;;;1.17;;
44476;SDS011;30180;44.788;10.366;2022-07-06T08:55:30;4.15;;;1.33;;
44476;SDS011;30180;44.788;10.366;2022-07-06T08:58:00;2.15;;;1.38;;
44476;SDS011;30180;44.788;10.366;2022-07-06T09:00:28;3.63;;;1.40;;
44476;SDS011;30180;44.788;10.366;2022-07-06T09:02:57;2.80;;;1.50;;
44476;SDS011;30180;44.788;10.366;2022-07-06T09:05:26;3.45;;;1.52;;
44476;SDS011;30180;44.788;10.366;2022-07-06T09:07:57;4.35;;;1.60;;
44476;SDS011;30180;44.788;10.366;2022-07-06T09:10:26;4.28;;;2.10;;
44476;SDS011;30180;44.788;10.366;2022-07-06T09:13:01;4.30;;;1.67;;
44476;SDS011;30180;44.788;10.366;2022-07-06T09:15:32;5.18;;;1.95;;
44476;SDS011;30180;44.788;10.366;2022-07-06T09:18:00;4.47;;;1.55;;
44476;SDS011;30180;44.788;10.366;2022-07-06T09:20:30;2.60;;;1.77;;
44476;SDS011;30180;44.788;10.366;2022-07-06T09:23:01;2.90;;;1.70;;
44476;SDS011;30180;44.788;10.366;2022-07-06T09:25:31;5.40;;;2.08;;
44476;SDS011;30180;44.788;10.366;2022-07-06T09:27:59;6.10;;;2.15;;
44476;SDS011;30180;44.788;10.366;2022-07-06T09:30:28;4.30;;;1.50;;
44476;SDS011;30180;44.788;10.366;2022-07-06T09:32:57;4.25;;;1.88;;
44476;SDS011;30180;44.788;10.366;2022-07-06T09:35:27;3.83;;;1.60;;
44476;SDS011;30180;44.788;10.366;2022-07-06T09:38:03;3.88;;;1.80;;
44476;SDS011;30180;44.788;10.366;2022-07-06T09:40:32;4.30;;;2.00;;
44476;SDS011;30180;44.788;10.366;2022-07-06T09:45:37;5.45;;;2.08;;
44476;SDS011;30180;44.788;10.366;2022-07-06T09:48:07;4.97;;;1.95;;
44476;SDS011;30180;44.788;10.366;2022-07-06T09:50:41;2.63;;;1.63;;
44476;SDS011;30180;44.788;10.366;2022-07-06T09:53:13;2.78;;;1.65;;
44476;SDS011;30180;44.788;10.366;2022-07-06T09:55:45;4.15;;;1.77;;
44476;SDS011;30180;44.788;10.366;2022-07-06T09:58:14;2.10;;;1.60;;
44476;SDS011;30180;44.788;10.366;2022-07-06T10:00:47;3.58;;;1.77;;
44476;SDS011;30180;44.788;10.366;2022-07-06T10:03:16;3.22;;;1.63;;
44476;SDS011;30180;44.788;10.366;2022-07-06T10:05:45;2.58;;;1.80;;
44476;SDS011;30180;44.788;10.366;2022-07-06T10:08:17;4.13;;;1.77;;
44476;SDS011;30180;44.788;10.366;2022-07-06T10:10:47;3.65;;;1.83;;
44476;SDS011;30180;44.788;10.366;2022-07-06T10:13:16;3.97;;;1.80;;
44476;SDS011;30180;44.788;10.366;2022-07-06T10:15:49;4.93;;;1.70;;
44476;SDS011;30180;44.788;10.366;2022-07-06T10:18:18;3.35;;;1.70;;
44476;SDS011;30180;44.788;10.366;2022-07-06T10:20:47;4.90;;;1.95;;
44476;SDS011;30180;44.788;10.366;2022-07-06T10:23:15;5.45;;;2.05;;
44476;SDS011;30180;44.788;10.366;2022-07-06T10:25:47;4.57;;;2.00;;
44476;SDS011;30180;44.788;10.366;2022-07-06T10:28:16;5.45;;;2.10;;
44476;SDS011;30180;44.788;10.366;2022-07-06T10:30:46;4.80;;;2.05;;
44476;SDS011;30180;44.788;10.366;2022-07-06T10:33:17;3.33;;;2.15;;
44476;SDS011;30180;44.788;10.366;2022-07-06T10:35:53;3.50;;;1.90;;
44476;SDS011;30180;44.788;10.366;2022-07-06T10:38:31;4.93;;;2.10;;
44476;SDS011;30180;44.788;10.366;2022-07-06T10:41:02;4.63;;;2.40;;
44476;SDS011;30180;44.788;10.366;2022-07-06T10:43:42;3.63;;;2.05;;
44476;SDS011;30180;44.788;10.366;2022-07-06T10:46:11;4.70;;;2.22;;
44476;SDS011;30180;44.788;10.366;2022-07-06T10:48:41;5.30;;;2.25;;
44476;SDS011;30180;44.788;10.366;2022-07-06T10:51:11;6.17;;;2.10;;
44476;SDS011;30180;44.788;10.366;2022-07-06T10:53:42;3.05;;;1.85;;
44476;SDS011;30180;44.788;10.366;2022-07-06T10:56:10;4.18;;;2.00;;
44476;SDS011;30180;44.788;10.366;2022-07-06T10:58:49;3.97;;;2.00;;
44476;SDS011;30180;44.788;10.366;2022-07-06T11:01:19;4.15;;;2.10;;
44476;SDS011;30180;44.788;10.366;2022-07-06T11:03:50;3.78;;;2.00;;
44476;SDS011;30180;44.788;10.366;2022-07-06T11:06:32;5.20;;;2.20;;
44476;SDS011;30180;44.788;10.366;2022-07-06T11:09:04;4.22;;;2.00;;
44476;SDS011;30180;44.788;10.366;2022-07-06T11:11:40;4.38;;;2.08;;
44476;SDS011;30180;44.788;10.366;2022-07-06T11:14:12;4.22;;;2.28;;
44476;SDS011;30180;44.788;10.366;2022-07-06T11:19:31;4.83;;;2.30;;
44476;SDS011;30180;44.788;10.366;2022-07-06T11:22:04;4.82;;;2.30;;
44476;SDS011;30180;44.788;10.366;2022-07-06T11:24:37;3.33;;;2.13;;
44476;SDS011;30180;44.788;10.366;2022-07-06T11:27:07;5.30;;;2.88;;
44476;SDS011;30180;44.788;10.366;2022-07-06T11:29:36;4.82;;;2.45;;
44476;SDS011;30180;44.788;10.366;2022-07-06T11:32:06;4.03;;;2.30;;
44476;SDS011;30180;44.788;10.366;2022-07-06T11:34:38;3.85;;;2.55;;
44476;SDS011;30180;44.788;10.366;2022-07-06T11:37:08;4.63;;;2.28;;
44476;SDS011;30180;44.788;10.366;2022-07-06T11:39:39;4.63;;;2.40;;
44476;SDS011;30180;44.788;10.366;2022-07-06T11:42:09;4.45;;;2.38;;
44476;SDS011;30180;44.788;10.366;2022-07-06T11:44:39;4.93;;;2.40;;
44476;SDS011;30180;44.788;10.366;2022-07-06T11:47:08;4.28;;;2.15;;
44476;SDS011;30180;44.788;10.366;2022-07-06T11:49:37;4.47;;;2.28;;
44476;SDS011;30180;44.788;10.366;2022-07-06T11:52:07;3.13;;;2.17;;
44476;SDS011;30180;44.788;10.366;2022-07-06T11:54:37;3.63;;;1.90;;
44476;SDS011;30180;44.788;10.366;2022-07-06T11:57:08;5.20;;;2.40;;
44476;SDS011;30180;44.788;10.366;2022-07-06T11:59:38;3.37;;;2.20;;
44476;SDS011;30180;44.788;10.366;2022-07-06T12:02:07;4.13;;;2.15;;
44476;SDS011;30180;44.788;10.366;2022-07-06T12:04:37;6.32;;;2.60;;
44476;SDS011;30180;44.788;10.366;2022-07-06T12:07:08;3.67;;;2.00;;
44476;SDS011;30180;44.788;10.366;2022-07-06T12:12:08;3.90;;;2.30;;
44476;SDS011;30180;44.788;10.366;2022-07-06T12:14:38;3.47;;;2.30;;
44476;SDS011;30180;44.788;10.366;2022-07-06T12:17:08;6.23;;;2.50;;
44476;SDS011;30180;44.788;10.366;2022-07-06T12:22:07;5.78;;;2.58;;
44476;SDS011;30180;44.788;10.366;2022-07-06T12:24:36;3.83;;;2.30;;
44476;SDS011;30180;44.788;10.366;2022-07-06T12:27:12;4.05;;;2.10;;
44476;SDS011;30180;44.788;10.366;2022-07-06T12:29:41;4.25;;;2.20;;
44476;SDS011;30180;44.788;10.366;2022-07-06T12:32:13;5.53;;;2.45;;
44476;SDS011;30180;44.788;10.366;2022-07-06T12:34:43;4.60;;;2.30;;
44476;SDS011;30180;44.788;10.366;2022-07-06T12:37:11;5.55;;;2.53;;
44476;SDS011;30180;44.788;10.366;2022-07-06T12:39:41;3.50;;;2.20;;
44476;SDS011;30180;44.788;10.366;2022-07-06T12:42:12;4.88;;;2.92;;
44476;SDS011;30180;44.788;10.366;2022-07-06T12:44:46;3.97;;;2.40;;
44476;SDS011;30180;44.788;10.366;2022-07-06T12:47:16;4.60;;;2.27;;
44476;SDS011;30180;44.788;10.366;2022-07-06T12:49:46;3.40;;;2.20;;
44476;SDS011;30180;44.788;10.366;2022-07-06T12:52:14;4.25;;;2.50;;
44476;SDS011;30180;44.788;10.366;2022-07-06T12:54:44;3.92;;;2.42;;
44476;SDS011;30180;44.788;10.366;2022-07-06T12:57:16;3.00;;;2.28;;
44476;SDS011;30180;44.788;10.366;2022-07-06T12:59:45;5.38;;;2.58;;
44476;SDS011;30180;44.788;10.366;2022-07-06T13:02:20;2.90;;;2.20;;
44476;SDS011;30180;44.788;10.366;2022-07-06T13:05:10;7.18;;;3.28;;
44476;SDS011;30180;44.788;10.366;2022-07-06T13:07:43;4.93;;;2.57;;
44476;SDS011;30180;44.788;10.366;2022-07-06T13:10:13;5.05;;;2.30;;
44476;SDS011;30180;44.788;10.366;2022-07-06T13:12:44;4.13;;;2.43;;
44476;SDS011;30180;44.788;10.366;2022-07-06T13:15:12;4.10;;;2.45;;
44476;SDS011;30180;44.788;10.366;2022-07-06T13:17:41;4.15;;;2.55;;
44476;SDS011;30180;44.788;10.366;2022-07-06T13:20:11;3.55;;;2.55;;
44476;SDS011;30180;44.788;10.366;2022-07-06T13:22:40;3.58;;;2.72;;
44476;SDS011;30180;44.788;10.366;2022-07-06T13:25:08;3.58;;;2.40;;
44476;SDS011;30180;44.788;10.366;2022-07-06T13:27:37;4.03;;;2.45;;
44476;SDS011;30180;44.788;10.366;2022-07-06T13:30:07;3.75;;;2.55;;
44476;SDS011;30180;44.788;10.366;2022-07-06T13:32:37;4.88;;;2.67;;
44476;SDS011;30180;44.788;10.366;2022-07-06T13:35:06;5.05;;;3.13;;
44476;SDS011;30180;44.788;10.366;2022-07-06T13:37:36;3.65;;;2.28;;
44476;SDS011;30180;44.788;10.366;2022-07-06T13:40:04;3.25;;;2.30;;
44476;SDS011;30180;44.788;10.366;2022-07-06T13:42:33;3.95;;;2.65;;
44476;SDS011;30180;44.788;10.366;2022-07-06T13:45:02;3.17;;;2.40;;
44476;SDS011;30180;44.788;10.366;2022-07-06T13:47:32;5.32;;;2.75;;
44476;SDS011;30180;44.788;10.366;2022-07-06T13:50:00;4.05;;;2.45;;
44476;SDS011;30180;44.788;10.366;2022-07-06T13:52:29;5.22;;;2.45;;
44476;SDS011;30180;44.788;10.366;2022-07-06T13:54:57;3.08;;;2.47;;
44476;SDS011;30180;44.788;10.366;2022-07-06T13:57:28;5.65;;;2.30;;
44476;SDS011;30180;44.788;10.366;2022-07-06T13:59:56;4.35;;;2.38;;
44476;SDS011;30180;44.788;10.366;2022-07-06T14:02:24;3.85;;;2.45;;
44476;SDS011;30180;44.788;10.366;2022-07-06T14:04:54;3.03;;;2.28;;
44476;SDS011;30180;44.788;10.366;2022-07-06T14:07:22;4.68;;;2.67;;
44476;SDS011;30180;44.788;10.366;2022-07-06T14:09:51;4.10;;;2.70;;
44476;SDS011;30180;44.788;10.366;2022-07-06T14:12:19;4.03;;;2.83;;
44476;SDS011;30180;44.788;10.366;2022-07-06T14:14:50;3.90;;;2.20;;
44476;SDS011;30180;44.788;10.366;2022-07-06T14:17:18;3.75;;;2.55;;
44476;SDS011;30180;44.788;10.366;2022-07-06T14:19:47;5.15;;;2.67;;
44476;SDS011;30180;44.788;10.366;2022-07-06T14:22:17;3.30;;;2.33;;
44476;SDS011;30180;44.788;10.366;2022-07-06T14:24:46;4.60;;;2.33;;
44476;SDS011;30180;44.788;10.366;2022-07-06T14:27:14;3.63;;;2.28;;
44476;SDS011;30180;44.788;10.366;2022-07-06T14:29:42;5.35;;;2.38;;
44476;SDS011;30180;44.788;10.366;2022-07-06T14:32:10;4.00;;;2.20;;
44476;SDS011;30180;44.788;10.366;2022-07-06T14:34:39;3.45;;;2.20;;
44476;SDS011;30180;44.788;10.366;2022-07-06T14:37:08;4.22;;;2.63;;
44476;SDS011;30180;44.788;10.366;2022-07-06T14:39:44;5.63;;;2.28;;
44476;SDS011;30180;44.788;10.366;2022-07-06T14:42:15;4.68;;;2.88;;
44476;SDS011;30180;44.788;10.366;2022-07-06T14:44:43;3.67;;;2.40;;
44476;SDS011;30180;44.788;10.366;2022-07-06T14:47:11;5.07;;;2.72;;
44476;SDS011;30180;44.788;10.366;2022-07-06T14:49:39;3.90;;;2.25;;
44476;SDS011;30180;44.788;10.366;2022-07-06T14:52:07;5.25;;;2.53;;
44476;SDS011;30180;44.788;10.366;2022-07-06T14:54:36;3.67;;;2.20;;
44476;SDS011;30180;44.788;10.366;2022-07-06T14:57:06;3.75;;;2.30;;
44476;SDS011;30180;44.788;10.366;2022-07-06T14:59:35;4.63;;;2.40;;
44476;SDS011;30180;44.788;10.366;2022-07-06T15:02:03;6.97;;;3.30;;